sensor_id;sensor_type;location;lat;lon;timestamp;temperature;humidity
3334;DHT22;1679;50.392;8.008;2023-05-10T00:01:07;13.60;99.90
3334;DHT22;1679;50.392;8.008;2023-05-10T00:03:32;13.60;99.90
3334;DHT22;1679;50.392;8.008;2023-05-10T00:06:00;13.60;99.90
3334;DHT22;1679;50.392;8.008;2023-05-10T00:08:25;13.50;99.90
3334;DHT22;1679;50.392;8.008;2023-05-10T00:10:52;13.50;99.90
3334;DHT22;1679;50.392;8.008;2023-05-10T00:13:18;13.50;99.90
3334;DHT22;1679;50.392;8.008;2023-05-10T00:15:46;13.50;99.90
3334;DHT22;1679;50.392;8.008;2023-05-10T00:18:11;13.50;99.90
3334;DHT22;1679;50.392;8.008;2023-05-10T00:20:37;13.40;99.90
3334;DHT22;1679;50.392;8.008;2023-05-10T00:23:02;13.50;99.90
3334;DHT22;1679;50.392;8.008;2023-05-10T00:25:28;13.50;99.90
3334;DHT22;1679;50.392;8.008;2023-05-10T00:27:54;13.50;99.90
3334;DHT22;1679;50.392;8.008;2023-05-10T00:30:21;13.40;99.90
3334;DHT22;1679;50.392;8.008;2023-05-10T00:32:46;13.50;99.90
3334;DHT22;1679;50.392;8.008;2023-05-10T00:35:13;13.40;99.90
3334;DHT22;1679;50.392;8.008;2023-05-10T00:37:38;13.40;99.90
3334;DHT22;1679;50.392;8.008;2023-05-10T00:40:05;13.40;99.90
3334;DHT22;1679;50.392;8.008;2023-05-10T00:42:32;13.40;99.90
3334;DHT22;1679;50.392;8.008;2023-05-10T00:44:58;13.40;99.90
3334;DHT22;1679;50.392;8.008;2023-05-10T00:47:24;13.40;99.90
3334;DHT22;1679;50.392;8.008;2023-05-10T00:49:49;13.40;99.90
3334;DHT22;1679;50.392;8.008;2023-05-10T00:52:16;13.40;99.90
3334;DHT22;1679;50.392;8.008;2023-05-10T00:54:42;13.40;99.90
3334;DHT22;1679;50.392;8.008;2023-05-10T00:57:08;13.40;99.90
3334;DHT22;1679;50.392;8.008;2023-05-10T00:59:34;13.40;99.90
3334;DHT22;1679;50.392;8.008;2023-05-10T01:02:00;13.40;99.90
3334;DHT22;1679;50.392;8.008;2023-05-10T01:04:26;13.40;99.90
3334;DHT22;1679;50.392;8.008;2023-05-10T01:06:52;13.40;99.90
3334;DHT22;1679;50.392;8.008;2023-05-10T01:09:20;13.40;99.90
3334;DHT22;1679;50.392;8.008;2023-05-10T01:11:47;13.40;99.90
3334;DHT22;1679;50.392;8.008;2023-05-10T01:14:15;13.40;99.90
3334;DHT22;1679;50.392;8.008;2023-05-10T01:16:44;13.30;99.90
3334;DHT22;1679;50.392;8.008;2023-05-10T01:19:19;13.30;99.90
3334;DHT22;1679;50.392;8.008;2023-05-10T01:21:57;13.30;99.90
3334;DHT22;1679;50.392;8.008;2023-05-10T01:30:35;13.20;99.90
3334;DHT22;1679;50.392;8.008;2023-05-10T01:35:40;13.20;99.90
3334;DHT22;1679;50.392;8.008;2023-05-10T01:38:47;13.20;99.90
3334;DHT22;1679;50.392;8.008;2023-05-10T01:41:50;13.30;99.90
3334;DHT22;1679;50.392;8.008;2023-05-10T01:44:34;13.30;99.90
3334;DHT22;1679;50.392;8.008;2023-05-10T01:47:33;13.20;99.90
3334;DHT22;1679;50.392;8.008;2023-05-10T01:50:03;13.20;99.90
3334;DHT22;1679;50.392;8.008;2023-05-10T01:52:42;13.20;99.90
3334;DHT22;1679;50.392;8.008;2023-05-10T01:55:13;13.10;99.90
3334;DHT22;1679;50.392;8.008;2023-05-10T01:57:39;13.10;99.90
3334;DHT22;1679;50.392;8.008;2023-05-10T02:00:07;13.10;99.90
3334;DHT22;1679;50.392;8.008;2023-05-10T02:02:37;13.20;99.90
3334;DHT22;1679;50.392;8.008;2023-05-10T02:05:04;13.10;99.90
3334;DHT22;1679;50.392;8.008;2023-05-10T02:07:31;13.00;99.90
3334;DHT22;1679;50.392;8.008;2023-05-10T02:09:58;13.00;99.90
3334;DHT22;1679;50.392;8.008;2023-05-10T02:12:25;13.00;99.90
3334;DHT22;1679;50.392;8.008;2023-05-10T02:14:52;12.90;99.90
3334;DHT22;1679;50.392;8.008;2023-05-10T02:17:19;12.90;99.90
3334;DHT22;1679;50.392;8.008;2023-05-10T02:19:47;12.90;99.90
3334;DHT22;1679;50.392;8.008;2023-05-10T02:22:13;12.90;99.90
3334;DHT22;1679;50.392;8.008;2023-05-10T02:24:40;12.80;99.90
3334;DHT22;1679;50.392;8.008;2023-05-10T02:27:07;12.90;99.90
3334;DHT22;1679;50.392;8.008;2023-05-10T02:29:37;12.80;99.90
3334;DHT22;1679;50.392;8.008;2023-05-10T02:32:03;12.90;99.90
3334;DHT22;1679;50.392;8.008;2023-05-10T02:34:30;12.80;99.90
3334;DHT22;1679;50.392;8.008;2023-05-10T02:36:57;12.90;99.90
3334;DHT22;1679;50.392;8.008;2023-05-10T02:39:23;12.80;99.90
3334;DHT22;1679;50.392;8.008;2023-05-10T02:41:50;12.90;99.90
3334;DHT22;1679;50.392;8.008;2023-05-10T02:44:20;12.80;99.90
3334;DHT22;1679;50.392;8.008;2023-05-10T02:46:46;12.80;99.90
3334;DHT22;1679;50.392;8.008;2023-05-10T02:49:13;12.80;99.90
3334;DHT22;1679;50.392;8.008;2023-05-10T02:51:44;12.90;99.90
3334;DHT22;1679;50.392;8.008;2023-05-10T02:54:26;12.90;99.90
3334;DHT22;1679;50.392;8.008;2023-05-10T02:56:57;12.90;99.90
3334;DHT22;1679;50.392;8.008;2023-05-10T02:59:23;12.90;99.90
3334;DHT22;1679;50.392;8.008;2023-05-10T03:01:49;12.90;99.90
3334;DHT22;1679;50.392;8.008;2023-05-10T03:04:14;12.90;99.90
3334;DHT22;1679;50.392;8.008;2023-05-10T03:06:40;12.80;99.90
3334;DHT22;1679;50.392;8.008;2023-05-10T03:09:06;12.80;99.90
3334;DHT22;1679;50.392;8.008;2023-05-10T03:11:56;12.90;99.90
3334;DHT22;1679;50.392;8.008;2023-05-10T03:17:30;12.90;99.90
3334;DHT22;1679;50.392;8.008;2023-05-10T03:20:06;12.90;99.90
3334;DHT22;1679;50.392;8.008;2023-05-10T03:22:45;12.90;99.90
3334;DHT22;1679;50.392;8.008;2023-05-10T03:25:15;12.90;99.90
3334;DHT22;1679;50.392;8.008;2023-05-10T03:27:43;12.90;99.90
3334;DHT22;1679;50.392;8.008;2023-05-10T03:30:11;12.90;99.90
3334;DHT22;1679;50.392;8.008;2023-05-10T03:32:37;12.80;99.90
3334;DHT22;1679;50.392;8.008;2023-05-10T03:35:09;12.80;99.90
3334;DHT22;1679;50.392;8.008;2023-05-10T03:37:35;12.80;99.90
3334;DHT22;1679;50.392;8.008;2023-05-10T03:40:02;12.80;99.90
3334;DHT22;1679;50.392;8.008;2023-05-10T03:42:28;12.80;99.90
3334;DHT22;1679;50.392;8.008;2023-05-10T03:44:53;12.80;99.90
3334;DHT22;1679;50.392;8.008;2023-05-10T03:47:19;12.80;99.90
3334;DHT22;1679;50.392;8.008;2023-05-10T03:49:45;12.80;99.90
3334;DHT22;1679;50.392;8.008;2023-05-10T03:52:10;12.80;99.90
3334;DHT22;1679;50.392;8.008;2023-05-10T03:54:36;12.80;99.90
3334;DHT22;1679;50.392;8.008;2023-05-10T03:57:01;12.80;99.90
3334;DHT22;1679;50.392;8.008;2023-05-10T03:59:28;12.80;99.90
3334;DHT22;1679;50.392;8.008;2023-05-10T04:01:53;12.70;99.90
3334;DHT22;1679;50.392;8.008;2023-05-10T04:04:19;12.70;99.90
3334;DHT22;1679;50.392;8.008;2023-05-10T04:06:46;12.70;99.90
3334;DHT22;1679;50.392;8.008;2023-05-10T04:09:11;12.70;99.90
3334;DHT22;1679;50.392;8.008;2023-05-10T04:11:37;12.70;99.90
3334;DHT22;1679;50.392;8.008;2023-05-10T04:14:02;12.70;99.90
3334;DHT22;1679;50.392;8.008;2023-05-10T04:16:29;12.70;99.90
3334;DHT22;1679;50.392;8.008;2023-05-10T04:18:54;12.70;99.90
3334;DHT22;1679;50.392;8.008;2023-05-10T04:21:20;12.80;99.90
3334;DHT22;1679;50.392;8.008;2023-05-10T04:23:45;12.80;99.90
3334;DHT22;1679;50.392;8.008;2023-05-10T04:26:11;12.80;99.90
3334;DHT22;1679;50.392;8.008;2023-05-10T04:28:38;12.80;99.90
3334;DHT22;1679;50.392;8.008;2023-05-10T04:31:08;12.80;99.90
3334;DHT22;1679;50.392;8.008;2023-05-10T04:33:34;12.90;99.90
3334;DHT22;1679;50.392;8.008;2023-05-10T04:36:00;12.90;99.90
3334;DHT22;1679;50.392;8.008;2023-05-10T04:38:27;12.80;99.90
3334;DHT22;1679;50.392;8.008;2023-05-10T04:40:53;12.80;99.90
3334;DHT22;1679;50.392;8.008;2023-05-10T04:43:19;12.80;99.90
3334;DHT22;1679;50.392;8.008;2023-05-10T04:45:45;12.80;99.90
3334;DHT22;1679;50.392;8.008;2023-05-10T04:48:11;12.80;99.90
3334;DHT22;1679;50.392;8.008;2023-05-10T04:50:39;12.80;99.90
3334;DHT22;1679;50.392;8.008;2023-05-10T04:53:04;12.80;99.90
3334;DHT22;1679;50.392;8.008;2023-05-10T04:55:30;12.80;99.90
3334;DHT22;1679;50.392;8.008;2023-05-10T04:57:56;12.70;99.90
3334;DHT22;1679;50.392;8.008;2023-05-10T05:00:22;12.70;99.90
3334;DHT22;1679;50.392;8.008;2023-05-10T05:02:48;12.70;99.90
3334;DHT22;1679;50.392;8.008;2023-05-10T05:05:14;12.80;99.90
3334;DHT22;1679;50.392;8.008;2023-05-10T05:07:40;12.90;99.90
3334;DHT22;1679;50.392;8.008;2023-05-10T05:10:08;12.90;99.90
3334;DHT22;1679;50.392;8.008;2023-05-10T05:12:35;12.80;99.90
3334;DHT22;1679;50.392;8.008;2023-05-10T05:15:01;12.80;99.90
3334;DHT22;1679;50.392;8.008;2023-05-10T05:17:29;12.80;99.90
3334;DHT22;1679;50.392;8.008;2023-05-10T05:19:55;12.80;99.90
3334;DHT22;1679;50.392;8.008;2023-05-10T05:22:21;12.80;99.90
3334;DHT22;1679;50.392;8.008;2023-05-10T05:24:53;12.80;99.90
3334;DHT22;1679;50.392;8.008;2023-05-10T05:27:19;12.80;99.90
3334;DHT22;1679;50.392;8.008;2023-05-10T05:29:47;12.90;99.90
3334;DHT22;1679;50.392;8.008;2023-05-10T05:32:13;12.90;99.90
3334;DHT22;1679;50.392;8.008;2023-05-10T05:34:38;12.90;99.90
3334;DHT22;1679;50.392;8.008;2023-05-10T05:37:04;12.90;99.90
3334;DHT22;1679;50.392;8.008;2023-05-10T05:39:29;12.90;99.90
3334;DHT22;1679;50.392;8.008;2023-05-10T05:41:55;12.90;99.90
3334;DHT22;1679;50.392;8.008;2023-05-10T05:44:20;12.90;99.90
3334;DHT22;1679;50.392;8.008;2023-05-10T05:46:46;13.00;99.90
3334;DHT22;1679;50.392;8.008;2023-05-10T05:49:12;13.00;99.90
3334;DHT22;1679;50.392;8.008;2023-05-10T05:51:38;13.10;99.90
3334;DHT22;1679;50.392;8.008;2023-05-10T05:54:03;13.20;99.90
3334;DHT22;1679;50.392;8.008;2023-05-10T05:56:29;13.20;99.90
3334;DHT22;1679;50.392;8.008;2023-05-10T05:58:55;13.30;99.90
3334;DHT22;1679;50.392;8.008;2023-05-10T06:01:22;13.40;99.90
3334;DHT22;1679;50.392;8.008;2023-05-10T06:03:50;13.40;99.90
3334;DHT22;1679;50.392;8.008;2023-05-10T06:06:16;13.50;99.90
3334;DHT22;1679;50.392;8.008;2023-05-10T06:08:43;13.60;99.90
3334;DHT22;1679;50.392;8.008;2023-05-10T06:11:08;13.60;99.90
3334;DHT22;1679;50.392;8.008;2023-05-10T06:13:35;13.70;99.90
3334;DHT22;1679;50.392;8.008;2023-05-10T06:16:02;13.70;99.90
3334;DHT22;1679;50.392;8.008;2023-05-10T06:18:27;13.80;99.90
3334;DHT22;1679;50.392;8.008;2023-05-10T06:20:53;13.90;99.90
3334;DHT22;1679;50.392;8.008;2023-05-10T06:23:19;14.20;99.90
3334;DHT22;1679;50.392;8.008;2023-05-10T06:25:46;14.50;99.90
3334;DHT22;1679;50.392;8.008;2023-05-10T06:28:11;14.80;99.90
3334;DHT22;1679;50.392;8.008;2023-05-10T06:30:37;15.00;99.90
3334;DHT22;1679;50.392;8.008;2023-05-10T06:33:03;15.10;99.90
3334;DHT22;1679;50.392;8.008;2023-05-10T06:35:29;15.00;99.90
3334;DHT22;1679;50.392;8.008;2023-05-10T06:37:54;14.90;99.90
3334;DHT22;1679;50.392;8.008;2023-05-10T06:40:20;14.80;99.90
3334;DHT22;1679;50.392;8.008;2023-05-10T06:42:47;15.00;99.90
3334;DHT22;1679;50.392;8.008;2023-05-10T06:45:14;15.10;99.90
3334;DHT22;1679;50.392;8.008;2023-05-10T06:47:40;15.30;99.90
3334;DHT22;1679;50.392;8.008;2023-05-10T06:50:10;15.50;99.90
3334;DHT22;1679;50.392;8.008;2023-05-10T06:52:39;15.60;99.90
3334;DHT22;1679;50.392;8.008;2023-05-10T06:55:05;15.70;99.90
3334;DHT22;1679;50.392;8.008;2023-05-10T06:57:31;15.80;99.90
3334;DHT22;1679;50.392;8.008;2023-05-10T06:59:57;15.70;99.90
3334;DHT22;1679;50.392;8.008;2023-05-10T07:02:22;15.50;99.90
3334;DHT22;1679;50.392;8.008;2023-05-10T07:04:48;15.20;99.90
3334;DHT22;1679;50.392;8.008;2023-05-10T07:07:14;14.90;99.90
3334;DHT22;1679;50.392;8.008;2023-05-10T07:09:40;14.80;99.90
3334;DHT22;1679;50.392;8.008;2023-05-10T07:12:06;14.60;99.90
3334;DHT22;1679;50.392;8.008;2023-05-10T07:14:32;14.50;99.90
3334;DHT22;1679;50.392;8.008;2023-05-10T07:16:58;14.50;99.90
3334;DHT22;1679;50.392;8.008;2023-05-10T07:19:23;14.60;99.90
3334;DHT22;1679;50.392;8.008;2023-05-10T07:21:49;14.60;99.90
3334;DHT22;1679;50.392;8.008;2023-05-10T07:24:15;14.70;99.90
3334;DHT22;1679;50.392;8.008;2023-05-10T07:26:41;14.60;99.90
3334;DHT22;1679;50.392;8.008;2023-05-10T07:29:07;14.60;99.90
3334;DHT22;1679;50.392;8.008;2023-05-10T07:31:34;14.60;99.90
3334;DHT22;1679;50.392;8.008;2023-05-10T07:34:00;14.60;99.90
3334;DHT22;1679;50.392;8.008;2023-05-10T07:36:26;14.70;99.90
3334;DHT22;1679;50.392;8.008;2023-05-10T07:38:52;14.90;99.90
3334;DHT22;1679;50.392;8.008;2023-05-10T07:41:17;15.10;99.90
3334;DHT22;1679;50.392;8.008;2023-05-10T07:43:45;15.40;99.90
3334;DHT22;1679;50.392;8.008;2023-05-10T07:46:12;15.70;99.90
3334;DHT22;1679;50.392;8.008;2023-05-10T07:48:37;15.70;99.90
3334;DHT22;1679;50.392;8.008;2023-05-10T07:51:03;15.80;99.90
3334;DHT22;1679;50.392;8.008;2023-05-10T07:53:28;15.90;99.90
3334;DHT22;1679;50.392;8.008;2023-05-10T07:55:57;15.90;99.90
3334;DHT22;1679;50.392;8.008;2023-05-10T07:58:23;15.80;99.90
3334;DHT22;1679;50.392;8.008;2023-05-10T08:00:49;15.80;99.90
3334;DHT22;1679;50.392;8.008;2023-05-10T08:03:14;16.10;99.90
3334;DHT22;1679;50.392;8.008;2023-05-10T08:05:40;16.40;99.90
3334;DHT22;1679;50.392;8.008;2023-05-10T08:08:06;16.70;99.90
3334;DHT22;1679;50.392;8.008;2023-05-10T08:10:31;16.80;99.90
3334;DHT22;1679;50.392;8.008;2023-05-10T08:12:57;16.90;99.90
3334;DHT22;1679;50.392;8.008;2023-05-10T08:15:24;17.00;99.90
3334;DHT22;1679;50.392;8.008;2023-05-10T08:17:50;17.00;99.90
3334;DHT22;1679;50.392;8.008;2023-05-10T08:20:17;17.00;99.90
3334;DHT22;1679;50.392;8.008;2023-05-10T08:22:45;16.90;99.90
3334;DHT22;1679;50.392;8.008;2023-05-10T08:25:10;16.80;99.90
3334;DHT22;1679;50.392;8.008;2023-05-10T08:27:36;16.60;99.90
3334;DHT22;1679;50.392;8.008;2023-05-10T08:30:01;16.40;99.90
3334;DHT22;1679;50.392;8.008;2023-05-10T08:32:27;16.20;99.90
3334;DHT22;1679;50.392;8.008;2023-05-10T08:34:55;16.10;99.90
3334;DHT22;1679;50.392;8.008;2023-05-10T08:37:23;16.00;99.90
3334;DHT22;1679;50.392;8.008;2023-05-10T08:39:48;16.20;99.90
3334;DHT22;1679;50.392;8.008;2023-05-10T08:42:18;16.50;99.90
3334;DHT22;1679;50.392;8.008;2023-05-10T08:44:47;16.80;99.90
3334;DHT22;1679;50.392;8.008;2023-05-10T08:47:16;17.00;99.90
3334;DHT22;1679;50.392;8.008;2023-05-10T08:49:44;17.40;99.90
3334;DHT22;1679;50.392;8.008;2023-05-10T08:52:13;17.50;99.90
3334;DHT22;1679;50.392;8.008;2023-05-10T08:54:41;17.60;99.90
3334;DHT22;1679;50.392;8.008;2023-05-10T08:57:07;17.70;99.90
3334;DHT22;1679;50.392;8.008;2023-05-10T08:59:32;17.70;99.90
3334;DHT22;1679;50.392;8.008;2023-05-10T09:01:58;17.60;99.90
3334;DHT22;1679;50.392;8.008;2023-05-10T09:04:25;17.60;99.90
3334;DHT22;1679;50.392;8.008;2023-05-10T09:06:50;17.60;99.90
3334;DHT22;1679;50.392;8.008;2023-05-10T09:09:17;17.70;99.90
3334;DHT22;1679;50.392;8.008;2023-05-10T09:11:43;18.20;99.90
3334;DHT22;1679;50.392;8.008;2023-05-10T09:14:10;18.60;99.90
3334;DHT22;1679;50.392;8.008;2023-05-10T09:16:38;18.70;99.90
3334;DHT22;1679;50.392;8.008;2023-05-10T09:19:03;18.60;99.90
3334;DHT22;1679;50.392;8.008;2023-05-10T09:21:30;18.50;99.90
3334;DHT22;1679;50.392;8.008;2023-05-10T09:23:56;18.40;99.90
3334;DHT22;1679;50.392;8.008;2023-05-10T09:26:22;18.10;99.90
3334;DHT22;1679;50.392;8.008;2023-05-10T09:28:54;17.90;99.90
3334;DHT22;1679;50.392;8.008;2023-05-10T09:31:22;17.70;99.90
3334;DHT22;1679;50.392;8.008;2023-05-10T09:33:48;17.40;99.90
3334;DHT22;1679;50.392;8.008;2023-05-10T09:36:15;17.30;99.90
3334;DHT22;1679;50.392;8.008;2023-05-10T09:38:50;17.60;99.90
3334;DHT22;1679;50.392;8.008;2023-05-10T09:41:24;18.00;99.90
3334;DHT22;1679;50.392;8.008;2023-05-10T09:43:55;18.30;99.90
3334;DHT22;1679;50.392;8.008;2023-05-10T09:46:21;18.30;99.90
3334;DHT22;1679;50.392;8.008;2023-05-10T09:48:48;18.50;99.90
3334;DHT22;1679;50.392;8.008;2023-05-10T09:51:25;18.30;99.90
3334;DHT22;1679;50.392;8.008;2023-05-10T09:54:13;18.30;99.90
3334;DHT22;1679;50.392;8.008;2023-05-10T09:56:41;18.50;99.90
3334;DHT22;1679;50.392;8.008;2023-05-10T09:59:10;18.50;99.90
3334;DHT22;1679;50.392;8.008;2023-05-10T10:01:36;18.40;99.90
3334;DHT22;1679;50.392;8.008;2023-05-10T10:04:06;18.50;99.90
3334;DHT22;1679;50.392;8.008;2023-05-10T10:06:37;18.80;99.90
3334;DHT22;1679;50.392;8.008;2023-05-10T10:09:02;18.80;99.90
3334;DHT22;1679;50.392;8.008;2023-05-10T10:11:28;18.90;99.90
3334;DHT22;1679;50.392;8.008;2023-05-10T10:13:56;19.00;99.90
3334;DHT22;1679;50.392;8.008;2023-05-10T10:16:21;18.90;99.90
3334;DHT22;1679;50.392;8.008;2023-05-10T10:18:47;18.50;99.90
3334;DHT22;1679;50.392;8.008;2023-05-10T10:21:15;18.20;99.90
3334;DHT22;1679;50.392;8.008;2023-05-10T10:23:40;17.40;99.90
3334;DHT22;1679;50.392;8.008;2023-05-10T10:26:06;17.00;99.90
3334;DHT22;1679;50.392;8.008;2023-05-10T10:28:48;16.90;99.90
3334;DHT22;1679;50.392;8.008;2023-05-10T10:32:24;16.90;99.90
3334;DHT22;1679;50.392;8.008;2023-05-10T10:34:30;17.10;99.90
3334;DHT22;1679;50.392;8.008;2023-05-10T10:36:57;17.00;99.90
3334;DHT22;1679;50.392;8.008;2023-05-10T10:39:26;16.90;99.90
3334;DHT22;1679;50.392;8.008;2023-05-10T10:41:57;16.80;99.90
3334;DHT22;1679;50.392;8.008;2023-05-10T10:44:23;16.90;99.90
3334;DHT22;1679;50.392;8.008;2023-05-10T10:47:21;17.30;99.90
3334;DHT22;1679;50.392;8.008;2023-05-10T10:50:03;17.30;99.90
3334;DHT22;1679;50.392;8.008;2023-05-10T10:57:32;17.70;99.90
3334;DHT22;1679;50.392;8.008;2023-05-10T11:02:47;17.90;99.90
3334;DHT22;1679;50.392;8.008;2023-05-10T11:07:58;18.50;99.90
3334;DHT22;1679;50.392;8.008;2023-05-10T11:10:25;18.70;99.90
3334;DHT22;1679;50.392;8.008;2023-05-10T11:13:04;18.70;99.90
3334;DHT22;1679;50.392;8.008;2023-05-10T11:15:34;18.70;99.90
3334;DHT22;1679;50.392;8.008;2023-05-10T11:18:26;18.60;99.90
3334;DHT22;1679;50.392;8.008;2023-05-10T11:21:02;18.40;99.90
3334;DHT22;1679;50.392;8.008;2023-05-10T11:23:53;18.50;99.90
3334;DHT22;1679;50.392;8.008;2023-05-10T11:26:23;18.40;99.90
3334;DHT22;1679;50.392;8.008;2023-05-10T11:28:53;18.30;99.90
3334;DHT22;1679;50.392;8.008;2023-05-10T11:31:20;18.30;99.90
3334;DHT22;1679;50.392;8.008;2023-05-10T11:36:21;18.40;99.90
3334;DHT22;1679;50.392;8.008;2023-05-10T11:38:47;18.60;99.90
3334;DHT22;1679;50.392;8.008;2023-05-10T11:41:14;18.60;99.90
3334;DHT22;1679;50.392;8.008;2023-05-10T11:43:42;18.60;99.90
3334;DHT22;1679;50.392;8.008;2023-05-10T11:46:11;18.70;99.90
3334;DHT22;1679;50.392;8.008;2023-05-10T11:48:38;19.10;99.90
3334;DHT22;1679;50.392;8.008;2023-05-10T11:51:06;19.40;99.90
3334;DHT22;1679;50.392;8.008;2023-05-10T11:53:32;19.50;99.90
3334;DHT22;1679;50.392;8.008;2023-05-10T11:56:08;19.50;99.90
3334;DHT22;1679;50.392;8.008;2023-05-10T11:58:36;19.50;99.90
3334;DHT22;1679;50.392;8.008;2023-05-10T12:01:02;19.50;99.90
3334;DHT22;1679;50.392;8.008;2023-05-10T12:03:29;19.40;99.90
3334;DHT22;1679;50.392;8.008;2023-05-10T12:05:56;19.50;99.90
3334;DHT22;1679;50.392;8.008;2023-05-10T12:08:24;19.50;99.90
3334;DHT22;1679;50.392;8.008;2023-05-10T12:10:50;19.30;99.90
3334;DHT22;1679;50.392;8.008;2023-05-10T12:13:16;19.20;99.90
3334;DHT22;1679;50.392;8.008;2023-05-10T12:15:43;18.80;99.90
3334;DHT22;1679;50.392;8.008;2023-05-10T12:18:22;18.60;99.90
3334;DHT22;1679;50.392;8.008;2023-05-10T12:20:52;18.50;99.90
3334;DHT22;1679;50.392;8.008;2023-05-10T12:23:20;18.40;99.90
3334;DHT22;1679;50.392;8.008;2023-05-10T12:25:45;18.40;99.90
3334;DHT22;1679;50.392;8.008;2023-05-10T12:28:11;18.70;99.90
3334;DHT22;1679;50.392;8.008;2023-05-10T12:30:37;19.00;99.90
3334;DHT22;1679;50.392;8.008;2023-05-10T12:33:11;19.20;99.90
3334;DHT22;1679;50.392;8.008;2023-05-10T12:35:53;19.60;99.90
3334;DHT22;1679;50.392;8.008;2023-05-10T12:40:55;19.60;99.90
3334;DHT22;1679;50.392;8.008;2023-05-10T12:43:20;19.40;99.90
3334;DHT22;1679;50.392;8.008;2023-05-10T12:45:47;19.20;99.90
3334;DHT22;1679;50.392;8.008;2023-05-10T12:48:14;19.00;99.90
3334;DHT22;1679;50.392;8.008;2023-05-10T12:50:40;19.10;99.90
3334;DHT22;1679;50.392;8.008;2023-05-10T12:53:06;19.10;99.90
3334;DHT22;1679;50.392;8.008;2023-05-10T12:55:31;19.00;99.90
3334;DHT22;1679;50.392;8.008;2023-05-10T12:57:57;18.70;99.90
3334;DHT22;1679;50.392;8.008;2023-05-10T13:00:22;18.50;99.90
3334;DHT22;1679;50.392;8.008;2023-05-10T13:02:49;18.00;99.90
3334;DHT22;1679;50.392;8.008;2023-05-10T13:05:16;17.60;99.90
3334;DHT22;1679;50.392;8.008;2023-05-10T13:07:41;17.50;99.90
3334;DHT22;1679;50.392;8.008;2023-05-10T13:10:09;17.60;99.90
3334;DHT22;1679;50.392;8.008;2023-05-10T13:12:36;17.60;99.90
3334;DHT22;1679;50.392;8.008;2023-05-10T13:15:02;17.70;99.90
3334;DHT22;1679;50.392;8.008;2023-05-10T13:17:28;18.00;99.90
3334;DHT22;1679;50.392;8.008;2023-05-10T13:19:54;18.20;99.90
3334;DHT22;1679;50.392;8.008;2023-05-10T13:22:19;18.30;99.90
3334;DHT22;1679;50.392;8.008;2023-05-10T13:24:45;18.10;99.90
3334;DHT22;1679;50.392;8.008;2023-05-10T13:27:10;17.90;99.90
3334;DHT22;1679;50.392;8.008;2023-05-10T13:29:36;17.70;99.90
3334;DHT22;1679;50.392;8.008;2023-05-10T13:32:02;17.80;99.90
3334;DHT22;1679;50.392;8.008;2023-05-10T13:34:27;17.90;99.90
3334;DHT22;1679;50.392;8.008;2023-05-10T13:36:53;18.00;99.90
3334;DHT22;1679;50.392;8.008;2023-05-10T13:39:20;18.10;99.90
3334;DHT22;1679;50.392;8.008;2023-05-10T13:41:46;18.00;99.90
3334;DHT22;1679;50.392;8.008;2023-05-10T13:44:13;17.90;99.90
3334;DHT22;1679;50.392;8.008;2023-05-10T13:46:40;17.90;99.90
3334;DHT22;1679;50.392;8.008;2023-05-10T13:49:10;17.90;99.90
3334;DHT22;1679;50.392;8.008;2023-05-10T13:51:35;17.90;99.90
3334;DHT22;1679;50.392;8.008;2023-05-10T13:54:04;17.70;99.90
3334;DHT22;1679;50.392;8.008;2023-05-10T13:56:30;17.70;99.90
3334;DHT22;1679;50.392;8.008;2023-05-10T13:58:56;17.70;99.90
3334;DHT22;1679;50.392;8.008;2023-05-10T14:01:23;17.70;99.90
3334;DHT22;1679;50.392;8.008;2023-05-10T14:03:49;17.90;99.90
3334;DHT22;1679;50.392;8.008;2023-05-10T14:06:14;18.00;99.90
3334;DHT22;1679;50.392;8.008;2023-05-10T14:08:40;18.00;99.90
3334;DHT22;1679;50.392;8.008;2023-05-10T14:11:05;18.00;99.90
3334;DHT22;1679;50.392;8.008;2023-05-10T14:13:31;18.00;99.90
3334;DHT22;1679;50.392;8.008;2023-05-10T14:15:56;17.80;99.90
3334;DHT22;1679;50.392;8.008;2023-05-10T14:18:22;17.80;99.90
3334;DHT22;1679;50.392;8.008;2023-05-10T14:20:47;17.70;99.90
3334;DHT22;1679;50.392;8.008;2023-05-10T14:23:13;17.90;99.90
3334;DHT22;1679;50.392;8.008;2023-05-10T14:25:41;17.90;99.90
3334;DHT22;1679;50.392;8.008;2023-05-10T14:28:07;18.00;99.90
3334;DHT22;1679;50.392;8.008;2023-05-10T14:30:33;18.00;99.90
3334;DHT22;1679;50.392;8.008;2023-05-10T14:33:01;18.00;99.90
3334;DHT22;1679;50.392;8.008;2023-05-10T14:35:28;17.90;99.90
3334;DHT22;1679;50.392;8.008;2023-05-10T14:37:53;18.00;99.90
3334;DHT22;1679;50.392;8.008;2023-05-10T14:40:19;18.20;99.90
3334;DHT22;1679;50.392;8.008;2023-05-10T14:42:47;17.90;99.90
3334;DHT22;1679;50.392;8.008;2023-05-10T14:45:12;17.80;99.90
3334;DHT22;1679;50.392;8.008;2023-05-10T14:47:38;17.70;99.90
3334;DHT22;1679;50.392;8.008;2023-05-10T14:50:04;17.80;99.90
3334;DHT22;1679;50.392;8.008;2023-05-10T14:52:29;17.90;99.90
3334;DHT22;1679;50.392;8.008;2023-05-10T14:54:55;17.70;99.90
3334;DHT22;1679;50.392;8.008;2023-05-10T14:57:21;17.50;99.90
3334;DHT22;1679;50.392;8.008;2023-05-10T14:59:47;17.30;99.90
3334;DHT22;1679;50.392;8.008;2023-05-10T15:02:14;17.10;99.90
3334;DHT22;1679;50.392;8.008;2023-05-10T15:04:40;17.10;99.90
3334;DHT22;1679;50.392;8.008;2023-05-10T15:07:06;17.10;99.90
3334;DHT22;1679;50.392;8.008;2023-05-10T15:09:32;16.90;99.90
3334;DHT22;1679;50.392;8.008;2023-05-10T15:11:57;16.80;99.90
3334;DHT22;1679;50.392;8.008;2023-05-10T15:14:23;16.70;99.90
3334;DHT22;1679;50.392;8.008;2023-05-10T15:16:48;16.70;99.90
3334;DHT22;1679;50.392;8.008;2023-05-10T15:19:14;16.70;99.90
3334;DHT22;1679;50.392;8.008;2023-05-10T15:21:40;16.60;99.90
3334;DHT22;1679;50.392;8.008;2023-05-10T15:24:08;16.70;99.90
3334;DHT22;1679;50.392;8.008;2023-05-10T15:26:33;16.80;99.90
3334;DHT22;1679;50.392;8.008;2023-05-10T15:28:59;16.90;99.90
3334;DHT22;1679;50.392;8.008;2023-05-10T15:31:24;17.00;99.90
3334;DHT22;1679;50.392;8.008;2023-05-10T15:33:50;17.00;99.90
3334;DHT22;1679;50.392;8.008;2023-05-10T15:36:15;17.10;99.90
3334;DHT22;1679;50.392;8.008;2023-05-10T15:38:43;17.10;99.90
3334;DHT22;1679;50.392;8.008;2023-05-10T15:41:08;17.20;99.90
3334;DHT22;1679;50.392;8.008;2023-05-10T15:43:34;17.30;99.90
3334;DHT22;1679;50.392;8.008;2023-05-10T15:45:59;17.50;99.90
3334;DHT22;1679;50.392;8.008;2023-05-10T15:48:25;17.70;99.90
3334;DHT22;1679;50.392;8.008;2023-05-10T15:50:50;17.90;99.90
3334;DHT22;1679;50.392;8.008;2023-05-10T15:53:16;18.00;99.90
3334;DHT22;1679;50.392;8.008;2023-05-10T15:55:43;18.10;99.90
3334;DHT22;1679;50.392;8.008;2023-05-10T15:58:08;18.10;99.90
3334;DHT22;1679;50.392;8.008;2023-05-10T16:00:33;17.90;99.90
3334;DHT22;1679;50.392;8.008;2023-05-10T16:02:59;17.80;99.90
3334;DHT22;1679;50.392;8.008;2023-05-10T16:05:25;17.90;99.90
3334;DHT22;1679;50.392;8.008;2023-05-10T16:07:54;17.80;99.90
3334;DHT22;1679;50.392;8.008;2023-05-10T16:10:20;17.70;99.90
3334;DHT22;1679;50.392;8.008;2023-05-10T16:12:45;17.50;99.90
3334;DHT22;1679;50.392;8.008;2023-05-10T16:15:11;17.50;99.90
3334;DHT22;1679;50.392;8.008;2023-05-10T16:17:37;17.60;99.90
3334;DHT22;1679;50.392;8.008;2023-05-10T16:20:03;17.60;99.90
3334;DHT22;1679;50.392;8.008;2023-05-10T16:22:29;17.50;99.90
3334;DHT22;1679;50.392;8.008;2023-05-10T16:24:58;17.40;99.90
3334;DHT22;1679;50.392;8.008;2023-05-10T16:27:24;17.40;99.90
3334;DHT22;1679;50.392;8.008;2023-05-10T16:29:50;17.30;99.90
3334;DHT22;1679;50.392;8.008;2023-05-10T16:32:16;17.10;99.90